createdAt,value
2018-12-16T00:02:26.219Z,0.00
2018-12-16T00:04:54.892Z,0.00
2018-12-16T00:07:23.672Z,0.00
2018-12-16T00:09:52.333Z,-0.10
2018-12-16T00:12:21.086Z,-0.10
2018-12-16T00:14:49.820Z,-0.10
2018-12-16T00:17:18.436Z,0.00
2018-12-16T00:19:47.016Z,0.00
2018-12-16T00:22:15.697Z,0.00
2018-12-16T00:24:44.354Z,0.10
2018-12-16T00:27:13.330Z,0.20
2018-12-16T00:29:42.060Z,0.20
2018-12-16T00:32:10.643Z,0.30
2018-12-16T00:34:39.262Z,0.30
2018-12-16T00:37:08.235Z,0.30
2018-12-16T00:39:37.976Z,0.30
2018-12-16T00:42:06.669Z,0.40
2018-12-16T00:44:35.362Z,0.40
2018-12-16T00:47:04.127Z,0.40
2018-12-16T00:49:32.780Z,0.40
2018-12-16T00:52:01.430Z,0.40
2018-12-16T00:54:30.105Z,0.50
2018-12-16T00:56:58.720Z,0.40
2018-12-16T00:59:27.382Z,0.50
2018-12-16T01:01:56.011Z,0.40
2018-12-16T01:04:24.761Z,0.50
2018-12-16T01:06:53.353Z,0.40
2018-12-16T01:09:22.041Z,0.40
2018-12-16T01:11:50.802Z,0.40
2018-12-16T01:14:19.437Z,0.40
2018-12-16T01:16:48.043Z,0.40
2018-12-16T01:19:16.579Z,0.40
2018-12-16T01:21:45.183Z,0.30
2018-12-16T01:24:14.975Z,0.40
2018-12-16T01:26:43.664Z,0.30
2018-12-16T01:29:12.881Z,0.40
2018-12-16T01:31:41.496Z,0.40
2018-12-16T01:34:10.087Z,0.40
2018-12-16T01:36:38.772Z,0.40
2018-12-16T01:39:08.017Z,0.40
2018-12-16T01:41:36.735Z,0.40
2018-12-16T01:44:05.426Z,0.40
2018-12-16T01:46:34.024Z,0.40
2018-12-16T01:49:02.583Z,0.40
2018-12-16T01:51:31.237Z,0.40
2018-12-16T01:53:59.855Z,0.40
2018-12-16T01:56:28.464Z,0.40
2018-12-16T01:58:57.118Z,0.40
2018-12-16T02:01:25.805Z,0.40
2018-12-16T02:03:54.538Z,0.40
2018-12-16T02:06:23.162Z,0.40
2018-12-16T02:08:51.819Z,0.40
2018-12-16T02:11:20.415Z,0.40
2018-12-16T02:13:50.838Z,0.40
2018-12-16T02:16:19.581Z,0.40
2018-12-16T02:18:48.289Z,0.50
2018-12-16T02:21:16.957Z,0.40
2018-12-16T02:23:45.607Z,0.50
2018-12-16T02:26:14.339Z,0.50
2018-12-16T02:28:44.077Z,0.40
2018-12-16T02:31:12.731Z,0.50
2018-12-16T02:33:41.493Z,0.50
2018-12-16T02:36:10.253Z,0.50
2018-12-16T02:38:39.002Z,0.50
2018-12-16T02:41:07.786Z,0.40
2018-12-16T02:43:36.449Z,0.40
2018-12-16T02:46:05.149Z,0.50
2018-12-16T02:48:34.539Z,0.50
2018-12-16T02:51:03.293Z,0.50
2018-12-16T02:53:31.949Z,0.40
2018-12-16T02:56:00.591Z,0.40
2018-12-16T02:58:29.546Z,0.50
2018-12-16T03:00:58.181Z,0.50
2018-12-16T03:03:26.808Z,0.50
2018-12-16T03:05:55.451Z,0.50
2018-12-16T03:08:24.171Z,0.50
2018-12-16T03:10:52.919Z,0.50
2018-12-16T03:13:21.636Z,0.50
2018-12-16T03:15:50.321Z,0.50
2018-12-16T03:18:18.963Z,0.50
2018-12-16T03:20:47.672Z,0.50
2018-12-16T03:23:16.352Z,0.50
2018-12-16T03:25:44.970Z,0.50
2018-12-16T03:28:14.070Z,0.50
2018-12-16T03:30:42.724Z,0.50
2018-12-16T03:33:11.875Z,0.50
2018-12-16T03:35:40.512Z,0.50
2018-12-16T03:38:09.118Z,0.60
2018-12-16T03:40:37.760Z,0.50
2018-12-16T03:43:06.483Z,0.60
2018-12-16T03:45:35.661Z,0.60
2018-12-16T03:48:04.431Z,0.60
2018-12-16T03:50:33.144Z,0.60
2018-12-16T03:53:02.546Z,0.60
2018-12-16T03:55:31.255Z,0.70
2018-12-16T03:57:59.936Z,0.70
2018-12-16T04:00:28.731Z,0.70
2018-12-16T04:02:57.287Z,0.70
2018-12-16T04:05:25.924Z,0.70
2018-12-16T04:07:54.546Z,0.70
2018-12-16T04:10:24.192Z,0.70
2018-12-16T04:12:52.867Z,0.70
2018-12-16T04:15:22.370Z,0.70
2018-12-16T04:17:51.008Z,0.70
2018-12-16T04:20:19.804Z,0.80
2018-12-16T04:22:48.870Z,0.80
2018-12-16T04:25:17.558Z,0.80
2018-12-16T04:27:46.209Z,0.80
2018-12-16T04:30:14.865Z,0.80
2018-12-16T04:32:43.563Z,0.70
2018-12-16T04:35:12.286Z,0.80
2018-12-16T04:37:40.856Z,0.80
2018-12-16T04:40:09.756Z,0.80
2018-12-16T04:42:38.457Z,0.80
2018-12-16T04:45:07.257Z,0.80
2018-12-16T04:47:35.888Z,0.80
2018-12-16T04:50:05.883Z,0.80
2018-12-16T04:52:34.599Z,0.70
2018-12-16T04:55:03.170Z,0.80
2018-12-16T04:57:31.842Z,0.80
2018-12-16T05:00:00.520Z,0.80
2018-12-16T05:02:29.205Z,0.80
2018-12-16T05:04:57.879Z,0.80
2018-12-16T05:07:26.534Z,0.80
2018-12-16T05:10:00.259Z,0.80
2018-12-16T05:12:28.910Z,0.70
2018-12-16T05:14:57.493Z,0.80
2018-12-16T05:17:26.191Z,0.80
2018-12-16T05:19:54.803Z,0.70
2018-12-16T05:22:23.879Z,0.70
2018-12-16T05:24:52.592Z,0.70
2018-12-16T05:27:21.253Z,0.80
2018-12-16T05:29:50.176Z,0.80
2018-12-16T05:32:18.771Z,0.80
2018-12-16T05:34:47.650Z,0.80
2018-12-16T05:37:16.317Z,0.80
2018-12-16T05:39:44.986Z,0.80
2018-12-16T05:42:13.627Z,0.80
2018-12-16T05:44:42.253Z,0.80
2018-12-16T05:47:11.015Z,0.80
2018-12-16T05:49:39.780Z,0.80
2018-12-16T05:52:08.460Z,0.80
2018-12-16T05:54:37.223Z,0.80
2018-12-16T05:57:05.875Z,0.80
2018-12-16T05:59:34.448Z,0.80
2018-12-16T06:02:03.044Z,0.90
2018-12-16T06:04:31.692Z,0.80
2018-12-16T06:07:00.269Z,0.90
2018-12-16T06:09:28.864Z,0.80
2018-12-16T06:11:57.536Z,0.90
2018-12-16T06:14:26.143Z,0.90
2018-12-16T06:16:54.806Z,0.80
2018-12-16T06:19:23.527Z,0.90
2018-12-16T06:21:52.191Z,0.90
2018-12-16T06:24:21.475Z,0.90
2018-12-16T06:26:50.227Z,0.90
2018-12-16T06:29:18.855Z,0.90
2018-12-16T06:31:47.588Z,0.90
2018-12-16T06:34:16.258Z,0.90
2018-12-16T06:36:52.465Z,0.80
2018-12-16T06:39:21.175Z,0.90
2018-12-16T06:41:49.804Z,0.90
2018-12-16T06:44:18.586Z,0.90
2018-12-16T06:46:47.387Z,0.90
2018-12-16T06:49:16.126Z,0.90
2018-12-16T06:51:44.883Z,0.90
2018-12-16T06:54:13.508Z,0.90
2018-12-16T06:56:42.213Z,0.90
2018-12-16T06:59:10.903Z,0.90
2018-12-16T07:01:39.609Z,0.90
2018-12-16T07:04:09.262Z,0.90
2018-12-16T07:06:38.044Z,0.90
2018-12-16T07:09:07.781Z,0.90
2018-12-16T07:11:36.509Z,0.90
2018-12-16T07:14:05.236Z,1.00
2018-12-16T07:16:34.684Z,1.00
2018-12-16T07:19:03.469Z,1.00
2018-12-16T07:21:32.131Z,1.00
2018-12-16T07:24:00.946Z,1.00
2018-12-16T07:26:29.621Z,1.00
2018-12-16T07:28:58.331Z,1.00
2018-12-16T07:31:27.136Z,1.00
2018-12-16T07:34:02.305Z,1.00
2018-12-16T07:36:38.205Z,1.00
2018-12-16T07:39:12.106Z,1.00
2018-12-16T07:41:44.964Z,1.00
2018-12-16T07:44:17.451Z,1.00
2018-12-16T07:46:59.930Z,1.00
2018-12-16T07:49:31.702Z,1.00
2018-12-16T07:52:08.888Z,1.10
2018-12-16T07:54:45.036Z,1.10
2018-12-16T07:57:14.402Z,1.00
2018-12-16T07:59:53.801Z,1.10
2018-12-16T08:02:29.639Z,1.10
2018-12-16T08:05:05.268Z,1.10
2018-12-16T08:07:35.134Z,1.10
2018-12-16T08:10:12.396Z,1.10
2018-12-16T08:12:50.570Z,1.10
2018-12-16T08:15:25.488Z,1.10
2018-12-16T08:17:55.364Z,1.10
2018-12-16T08:20:26.001Z,1.20
2018-12-16T08:22:55.987Z,1.10
2018-12-16T08:25:24.607Z,1.10
2018-12-16T08:27:53.462Z,1.10
2018-12-16T08:30:23.058Z,1.10
2018-12-16T08:32:52.194Z,1.20
2018-12-16T08:35:21.267Z,1.20
2018-12-16T08:37:53.262Z,1.10
2018-12-16T08:40:22.336Z,1.10
2018-12-16T08:42:51.416Z,1.10
2018-12-16T08:45:21.161Z,1.10
2018-12-16T08:47:50.139Z,1.10
2018-12-16T08:50:18.986Z,1.10
2018-12-16T08:52:53.514Z,1.10
2018-12-16T08:55:23.257Z,1.10
2018-12-16T08:57:52.100Z,1.20
2018-12-16T09:00:21.377Z,1.20
2018-12-16T09:02:50.455Z,1.20
2018-12-16T09:05:20.878Z,1.20
2018-12-16T09:07:50.964Z,1.20
2018-12-16T09:10:20.112Z,1.20
2018-12-16T09:12:50.780Z,1.20
2018-12-16T09:15:30.227Z,1.20
2018-12-16T09:18:01.371Z,1.20
2018-12-16T09:20:30.168Z,1.30
2018-12-16T09:23:08.154Z,1.30
2018-12-16T09:25:37.705Z,1.30
2018-12-16T09:28:06.647Z,1.30
2018-12-16T09:30:35.443Z,1.30
2018-12-16T09:33:04.300Z,1.40
2018-12-16T09:35:34.055Z,1.30
2018-12-16T09:38:03.769Z,1.30
2018-12-16T09:40:33.343Z,1.30
2018-12-16T09:43:02.167Z,1.40
2018-12-16T09:45:35.211Z,1.40
2018-12-16T09:48:05.655Z,1.40
2018-12-16T09:50:35.701Z,1.40
2018-12-16T09:53:04.759Z,1.50
2018-12-16T09:55:33.735Z,1.50
2018-12-16T09:58:02.619Z,1.50
2018-12-16T10:00:32.287Z,1.50
2018-12-16T10:03:02.208Z,1.50
2018-12-16T10:05:31.046Z,1.50
2018-12-16T10:07:59.840Z,1.50
2018-12-16T10:10:28.536Z,1.50
2018-12-16T10:12:58.170Z,1.50
2018-12-16T10:15:26.939Z,1.60
2018-12-16T10:17:55.875Z,1.60
2018-12-16T10:20:24.650Z,1.60
2018-12-16T10:22:53.512Z,1.60
2018-12-16T10:25:22.425Z,1.60
2018-12-16T10:27:52.013Z,1.60
2018-12-16T10:30:20.830Z,1.60
2018-12-16T10:32:49.652Z,1.60
2018-12-16T10:35:19.482Z,1.60
2018-12-16T10:37:48.255Z,1.60
2018-12-16T10:40:16.895Z,1.70
2018-12-16T10:42:48.164Z,1.70
2018-12-16T10:45:17.754Z,1.60
2018-12-16T10:47:46.582Z,1.60
2018-12-16T10:50:15.592Z,1.60
2018-12-16T10:52:47.287Z,1.60
2018-12-16T10:55:17.185Z,1.60
2018-12-16T10:57:45.942Z,1.60
2018-12-16T11:00:20.470Z,1.60
2018-12-16T11:02:49.240Z,1.70
2018-12-16T11:05:21.221Z,1.70
2018-12-16T11:07:50.099Z,1.70
2018-12-16T11:10:18.800Z,1.70
2018-12-16T11:12:48.106Z,1.70
2018-12-16T11:15:16.750Z,1.70
2018-12-16T11:17:45.570Z,1.70
2018-12-16T11:20:14.397Z,1.80
2018-12-16T11:22:43.896Z,1.80
2018-12-16T11:25:14.987Z,1.70
2018-12-16T11:27:43.834Z,1.70
2018-12-16T11:30:14.295Z,1.80
2018-12-16T11:32:43.389Z,1.80
2018-12-16T11:35:12.489Z,1.70
2018-12-16T11:37:41.722Z,1.80
2018-12-16T11:40:11.619Z,1.80
2018-12-16T11:42:40.643Z,1.80
2018-12-16T11:45:11.847Z,1.80
2018-12-16T11:47:42.861Z,1.90
2018-12-16T11:50:14.502Z,1.90
2018-12-16T11:52:43.567Z,2.00
2018-12-16T11:55:16.656Z,2.00
2018-12-16T11:57:49.445Z,2.00
2018-12-16T12:00:27.125Z,2.10
2018-12-16T12:16:34.433Z,2.20
2018-12-16T12:19:16.575Z,2.10
2018-12-16T12:22:06.892Z,2.20
2018-12-16T12:25:02.136Z,2.20
2018-12-16T12:28:29.632Z,2.20
2018-12-16T12:34:56.749Z,2.30
2018-12-16T12:38:05.257Z,2.30
2018-12-16T12:40:44.386Z,2.30
2018-12-16T12:43:48.101Z,2.30
2018-12-16T12:46:29.849Z,2.30
2018-12-16T12:49:31.516Z,2.50
2018-12-16T12:52:14.649Z,2.40
2018-12-16T12:55:26.778Z,2.50
2018-12-16T12:58:01.762Z,2.50
2018-12-16T13:04:28.701Z,2.60
2018-12-16T13:07:10.388Z,2.60
2018-12-16T13:09:50.040Z,2.60
2018-12-16T13:12:34.225Z,2.60
2018-12-16T13:17:52.600Z,2.60
2018-12-16T13:20:23.563Z,2.60
2018-12-16T13:22:52.986Z,2.60
2018-12-16T13:28:16.555Z,2.60
2018-12-16T13:30:45.586Z,2.60
2018-12-16T13:33:15.867Z,2.60
2018-12-16T13:35:44.988Z,2.60
2018-12-16T13:38:14.793Z,2.60
2018-12-16T13:40:44.006Z,2.60
2018-12-16T13:43:15.718Z,2.60
2018-12-16T13:45:44.675Z,2.70
2018-12-16T13:48:14.342Z,2.60
2018-12-16T13:54:27.754Z,2.70
2018-12-16T13:56:57.560Z,2.70
2018-12-16T13:59:38.580Z,2.70
2018-12-16T14:02:07.289Z,2.70
2018-12-16T14:04:36.701Z,2.80
2018-12-16T14:07:07.641Z,2.80
2018-12-16T14:09:36.555Z,2.80
2018-12-16T14:12:12.908Z,2.90
2018-12-16T14:14:41.847Z,2.90
2018-12-16T14:17:10.894Z,2.90
2018-12-16T14:19:39.781Z,2.90
2018-12-16T14:22:09.194Z,3.00
2018-12-16T14:24:38.263Z,2.90
2018-12-16T14:27:08.800Z,2.90
2018-12-16T14:29:37.835Z,2.90
2018-12-16T14:32:06.797Z,3.00
2018-12-16T14:34:36.057Z,3.00
2018-12-16T14:37:05.251Z,2.90
2018-12-16T14:39:34.246Z,2.90
2018-12-16T14:42:04.350Z,2.90
2018-12-16T14:44:33.674Z,2.90
2018-12-16T14:47:02.666Z,2.90
2018-12-16T14:49:32.378Z,2.90
2018-12-16T14:52:01.373Z,2.90
2018-12-16T14:54:31.635Z,2.90
2018-12-16T14:57:05.502Z,2.90
2018-12-16T14:59:34.600Z,3.00
2018-12-16T15:02:03.792Z,3.00
2018-12-16T15:04:32.568Z,3.00
2018-12-16T15:07:01.590Z,3.00
2018-12-16T15:09:41.001Z,2.90
2018-12-16T15:12:17.777Z,2.90
2018-12-16T15:14:53.158Z,2.90
2018-12-16T15:17:22.924Z,2.90
2018-12-16T15:19:54.376Z,2.90
2018-12-16T15:22:23.888Z,2.90
2018-12-16T15:24:53.201Z,2.90
2018-12-16T15:27:23.044Z,2.90
2018-12-16T15:29:52.342Z,2.90
2018-12-16T15:32:23.347Z,2.90
2018-12-16T15:34:52.236Z,2.90
2018-12-16T15:37:22.264Z,2.90
2018-12-16T15:39:51.658Z,3.00
2018-12-16T15:42:26.657Z,3.00
2018-12-16T15:44:56.396Z,3.00
2018-12-16T15:47:25.286Z,3.00
2018-12-16T15:49:54.596Z,3.10
2018-12-16T15:52:24.671Z,3.00
2018-12-16T15:54:54.518Z,3.00
2018-12-16T15:57:24.272Z,3.10
2018-12-16T15:59:53.658Z,3.10
2018-12-16T16:02:23.492Z,3.20
2018-12-16T16:04:52.542Z,3.20
2018-12-16T16:07:21.401Z,3.20
2018-12-16T16:09:50.315Z,3.20
2018-12-16T16:12:19.142Z,3.20
2018-12-16T16:14:47.999Z,3.20
2018-12-16T16:17:17.110Z,3.20
2018-12-16T16:19:46.036Z,3.20
2018-12-16T16:22:14.797Z,3.20
2018-12-16T16:24:43.708Z,3.20
2018-12-16T16:27:12.416Z,3.30
2018-12-16T16:29:41.114Z,3.30
2018-12-16T16:32:09.964Z,3.30
2018-12-16T16:34:38.675Z,3.30
2018-12-16T16:37:08.216Z,3.40
2018-12-16T16:39:37.895Z,3.40
2018-12-16T16:42:06.733Z,3.40
2018-12-16T16:44:35.611Z,3.40
2018-12-16T16:47:04.405Z,3.40
2018-12-16T16:49:33.082Z,3.40
2018-12-16T16:52:01.992Z,3.40
2018-12-16T16:54:31.396Z,3.40
2018-12-16T16:57:00.176Z,3.40
2018-12-16T16:59:28.892Z,3.40
2018-12-16T17:01:58.038Z,3.40
2018-12-16T17:04:26.761Z,3.40
2018-12-16T17:06:55.430Z,3.40
2018-12-16T17:09:24.207Z,3.40
2018-12-16T17:11:52.946Z,3.40
2018-12-16T17:14:23.752Z,3.40
2018-12-16T17:16:52.540Z,3.40
2018-12-16T17:19:21.558Z,3.40
2018-12-16T17:21:50.535Z,3.40
2018-12-16T17:24:19.198Z,3.40
2018-12-16T17:26:48.917Z,3.50
2018-12-16T17:29:17.682Z,3.50
2018-12-16T17:31:46.504Z,3.50
2018-12-16T17:34:15.295Z,3.50
2018-12-16T17:36:44.069Z,3.50
2018-12-16T17:39:13.452Z,3.50
2018-12-16T17:41:42.244Z,3.50
2018-12-16T17:44:11.079Z,3.50
2018-12-16T17:46:40.066Z,3.50
2018-12-16T17:49:09.056Z,3.50
2018-12-16T17:51:38.131Z,3.50
2018-12-16T17:54:06.900Z,3.50
2018-12-16T17:56:37.217Z,3.50
2018-12-16T17:59:06.352Z,3.50
2018-12-16T18:01:35.153Z,3.60
2018-12-16T18:04:06.523Z,3.60
2018-12-16T18:06:35.187Z,3.60
2018-12-16T18:09:06.081Z,3.60
2018-12-16T18:11:35.517Z,3.70
2018-12-16T18:14:04.401Z,3.70
2018-12-16T18:16:33.925Z,3.70
2018-12-16T18:19:02.628Z,3.70
2018-12-16T18:21:31.434Z,3.70
2018-12-16T18:24:00.057Z,3.70
2018-12-16T18:26:28.744Z,3.70
2018-12-16T18:28:57.685Z,3.60
2018-12-16T18:31:26.424Z,3.70
2018-12-16T18:33:55.087Z,3.60
2018-12-16T18:36:23.750Z,3.60
2018-12-16T18:38:52.434Z,3.70
2018-12-16T18:41:21.207Z,3.70
2018-12-16T18:43:49.938Z,3.70
2018-12-16T18:46:18.754Z,3.70
2018-12-16T18:48:48.334Z,3.70
2018-12-16T18:51:17.499Z,3.70
2018-12-16T18:53:46.842Z,3.70
2018-12-16T18:56:15.598Z,3.70
2018-12-16T18:58:44.227Z,3.80
2018-12-16T19:01:13.200Z,3.70
2018-12-16T19:03:42.119Z,3.70
2018-12-16T19:06:10.911Z,3.70
2018-12-16T19:08:40.164Z,3.80
2018-12-16T19:11:08.988Z,3.70
2018-12-16T19:13:37.626Z,3.80
2018-12-16T19:16:07.784Z,3.70
2018-12-16T19:18:36.554Z,3.70
2018-12-16T19:21:05.376Z,3.80
2018-12-16T19:23:34.003Z,3.80
2018-12-16T19:26:02.616Z,3.80
2018-12-16T19:28:31.379Z,3.80
2018-12-16T19:31:00.109Z,3.80
2018-12-16T19:33:30.113Z,3.80
2018-12-16T19:35:58.768Z,3.80
2018-12-16T19:38:27.552Z,3.80
2018-12-16T19:40:56.393Z,3.90
2018-12-16T19:43:25.096Z,3.90
2018-12-16T19:45:53.819Z,3.90
2018-12-16T19:48:22.646Z,4.00
2018-12-16T19:50:51.469Z,4.00
2018-12-16T19:53:20.250Z,4.00
2018-12-16T19:55:48.971Z,4.00
2018-12-16T19:58:18.625Z,4.00
2018-12-16T20:00:47.511Z,4.10
2018-12-16T20:03:16.161Z,4.10
2018-12-16T20:05:50.135Z,4.20
2018-12-16T20:08:18.798Z,4.20
2018-12-16T20:10:47.420Z,4.20
2018-12-16T20:13:16.094Z,4.20
2018-12-16T20:15:44.938Z,4.20
2018-12-16T20:18:13.726Z,4.20
2018-12-16T20:20:42.467Z,4.20
2018-12-16T20:23:11.415Z,4.20
2018-12-16T20:25:40.239Z,4.20
2018-12-16T20:28:09.801Z,4.20
2018-12-16T20:30:38.495Z,4.20
2018-12-16T20:33:07.271Z,4.20
2018-12-16T20:35:36.112Z,4.20
2018-12-16T20:38:05.876Z,4.20
2018-12-16T20:40:34.760Z,4.20
2018-12-16T20:43:03.463Z,4.20
2018-12-16T20:45:32.241Z,4.20
2018-12-16T20:48:01.046Z,4.20
2018-12-16T20:50:29.805Z,4.20
2018-12-16T20:52:58.559Z,4.20
2018-12-16T20:55:29.173Z,4.20
2018-12-16T20:57:57.869Z,4.20
2018-12-16T21:00:26.661Z,4.30
2018-12-16T21:02:56.469Z,4.20
2018-12-16T21:05:25.372Z,4.20
2018-12-16T21:07:54.070Z,4.20
2018-12-16T21:10:22.823Z,4.20
2018-12-16T21:12:56.703Z,4.30
2018-12-16T21:15:30.475Z,4.30
2018-12-16T21:18:04.580Z,4.20
2018-12-16T21:20:33.326Z,4.20
2018-12-16T21:23:01.953Z,4.20
2018-12-16T21:25:30.617Z,4.20
2018-12-16T21:27:59.327Z,4.20
2018-12-16T21:30:28.016Z,4.20
2018-12-16T21:32:56.729Z,4.20
2018-12-16T21:35:25.332Z,4.20
2018-12-16T21:37:54.072Z,4.20
2018-12-16T21:40:22.755Z,4.20
2018-12-16T21:42:51.445Z,4.20
2018-12-16T21:45:20.233Z,4.20
2018-12-16T21:47:48.915Z,4.20
2018-12-16T21:50:17.494Z,4.10
2018-12-16T21:52:46.145Z,4.20
2018-12-16T21:55:14.864Z,4.20
2018-12-16T21:57:43.480Z,4.10
2018-12-16T22:00:12.475Z,4.10
2018-12-16T22:02:41.095Z,4.20
2018-12-16T22:05:11.200Z,4.10
2018-12-16T22:07:39.870Z,4.10
2018-12-16T22:10:09.027Z,4.10
2018-12-16T22:12:38.076Z,4.10
2018-12-16T22:15:07.274Z,4.10
2018-12-16T22:17:35.912Z,4.10
2018-12-16T22:20:05.140Z,4.10
2018-12-16T22:22:33.726Z,4.10
2018-12-16T22:25:02.412Z,4.00
2018-12-16T22:27:31.033Z,4.00
2018-12-16T22:29:59.596Z,4.00
2018-12-16T22:32:28.305Z,4.00
2018-12-16T22:34:57.137Z,4.00
2018-12-16T22:37:25.890Z,4.00
2018-12-16T22:39:54.558Z,4.00
2018-12-16T22:42:24.056Z,4.00
2018-12-16T22:44:52.642Z,4.00
2018-12-16T22:47:21.886Z,4.00
2018-12-16T22:49:50.511Z,4.00
2018-12-16T22:52:19.457Z,4.00
2018-12-16T22:54:48.721Z,4.00
2018-12-16T22:57:17.387Z,4.00
2018-12-16T22:59:46.899Z,3.90
2018-12-16T23:02:15.559Z,3.90
2018-12-16T23:04:44.160Z,3.90
2018-12-16T23:07:12.859Z,3.90
2018-12-16T23:10:00.341Z,3.90
2018-12-16T23:12:30.960Z,3.90
2018-12-16T23:15:00.005Z,3.80
2018-12-16T23:17:29.028Z,3.80
2018-12-16T23:20:07.907Z,3.70
2018-12-16T23:22:43.484Z,3.70
2018-12-16T23:25:16.269Z,3.70
2018-12-16T23:27:54.305Z,3.70
2018-12-16T23:30:28.056Z,3.70
2018-12-16T23:32:59.343Z,3.70
2018-12-16T23:35:27.996Z,3.70
2018-12-16T23:37:56.697Z,3.70
2018-12-16T23:40:25.308Z,3.70
2018-12-16T23:42:54.901Z,3.70
2018-12-16T23:45:23.570Z,3.70
2018-12-16T23:47:52.167Z,3.60
2018-12-16T23:50:20.778Z,3.70
2018-12-16T23:52:49.402Z,3.60
2018-12-16T23:55:17.989Z,3.60
2018-12-16T23:57:46.673Z,3.60
